Terminal Aerodrome Forecast
Issued by NWS Jackson, KY

Home | Current Version | Previous Version | Text Only | Print | Product List | Glossary On
Versions: 1 2 3 4 5 6 7 8 9 10 11 12 13 14 15
000
FTUS43 KJKL 221700
TAFJKL
TAF
KJKL 221738Z 2218/2318 12004KT P6SM BKN035
     FM230800 15004KT P6SM VCSH OVC030
     FM231200 16004KT P6SM VCSH OVC020=

USA.gov is the U.S. government's official web portal to all federal, state and local government web resources and services.